createdAt,value
2022-10-18T00:02:10.066Z,100.00
2022-10-18T00:04:40.385Z,100.00
2022-10-18T00:07:10.467Z,100.00
2022-10-18T00:09:40.649Z,100.00
2022-10-18T00:12:10.843Z,100.00
2022-10-18T00:14:41.006Z,100.00
2022-10-18T00:17:13.853Z,100.00
2022-10-18T00:19:43.957Z,100.00
2022-10-18T00:22:14.303Z,100.00
2022-10-18T00:24:44.583Z,100.00
2022-10-18T00:27:14.813Z,100.00
2022-10-18T00:29:44.993Z,100.00
2022-10-18T00:32:20.631Z,100.00
2022-10-18T00:34:51.103Z,100.00
2022-10-18T00:37:21.601Z,100.00
2022-10-18T00:42:25.668Z,100.00
2022-10-18T00:45:23.387Z,100.00
2022-10-18T00:48:05.747Z,100.00
2022-10-18T00:50:37.394Z,100.00
2022-10-18T00:53:12.856Z,100.00
2022-10-18T00:55:43.067Z,100.00
2022-10-18T00:58:14.872Z,100.00
2022-10-18T01:00:45.498Z,100.00
2022-10-18T01:03:18.422Z,100.00
2022-10-18T01:05:50.790Z,100.00
2022-10-18T01:08:35.448Z,100.00
2022-10-18T01:11:18.653Z,100.00
2022-10-18T01:14:03.775Z,100.00
2022-10-18T01:16:41.128Z,100.00
2022-10-18T01:19:33.009Z,100.00
2022-10-18T01:22:08.632Z,100.00
2022-10-18T01:25:09.960Z,100.00
2022-10-18T01:27:51.302Z,100.00
2022-10-18T01:30:49.300Z,100.00
2022-10-18T01:33:28.833Z,100.00
2022-10-18T01:36:06.625Z,100.00
2022-10-18T01:38:40.491Z,100.00
2022-10-18T01:41:15.567Z,100.00
2022-10-18T01:43:48.965Z,100.00
2022-10-18T01:46:25.613Z,100.00
2022-10-18T01:48:57.530Z,100.00
2022-10-18T01:51:29.267Z,100.00
2022-10-18T01:54:00.251Z,100.00
2022-10-18T01:56:43.017Z,100.00
2022-10-18T01:59:25.477Z,100.00
2022-10-18T02:02:09.779Z,100.00
2022-10-18T02:04:47.447Z,100.00
2022-10-18T02:07:26.934Z,100.00
2022-10-18T02:10:06.389Z,100.00
2022-10-18T02:12:37.769Z,100.00
2022-10-18T02:15:12.045Z,100.00
2022-10-18T02:17:47.623Z,100.00
2022-10-18T02:20:22.959Z,100.00
2022-10-18T02:22:55.546Z,100.00
2022-10-18T02:25:28.413Z,100.00
2022-10-18T02:27:59.469Z,100.00
2022-10-18T02:30:37.144Z,100.00
2022-10-18T02:33:18.164Z,100.00
2022-10-18T02:35:52.883Z,100.00
2022-10-18T02:38:25.596Z,100.00
2022-10-18T02:40:56.021Z,100.00
2022-10-18T02:43:27.892Z,100.00
2022-10-18T02:45:58.215Z,100.00
2022-10-18T02:48:31.206Z,100.00
2022-10-18T02:51:01.446Z,100.00
2022-10-18T02:53:31.830Z,100.00
2022-10-18T02:56:03.387Z,100.00
2022-10-18T02:58:33.719Z,100.00
2022-10-18T03:01:04.582Z,100.00
2022-10-18T03:03:37.279Z,100.00
2022-10-18T03:06:07.770Z,100.00
2022-10-18T03:08:39.325Z,100.00
2022-10-18T03:11:09.888Z,100.00
2022-10-18T03:13:40.176Z,100.00
2022-10-18T03:16:10.476Z,100.00
2022-10-18T03:18:43.686Z,100.00
2022-10-18T03:21:14.015Z,100.00
2022-10-18T03:23:45.611Z,100.00
2022-10-18T03:26:16.174Z,100.00
2022-10-18T03:28:46.871Z,100.00
2022-10-18T03:31:17.160Z,100.00
2022-10-18T03:33:50.765Z,100.00
2022-10-18T03:36:21.243Z,100.00
2022-10-18T03:38:51.399Z,100.00
2022-10-18T03:41:21.434Z,100.00
2022-10-18T03:43:51.670Z,100.00
2022-10-18T03:46:21.852Z,100.00
2022-10-18T03:48:54.748Z,100.00
2022-10-18T03:51:24.870Z,100.00
2022-10-18T03:53:55.354Z,100.00
2022-10-18T03:56:25.642Z,100.00
2022-10-18T03:58:58.961Z,100.00
2022-10-18T04:01:29.087Z,100.00
2022-10-18T04:04:03.055Z,100.00
2022-10-18T04:06:33.375Z,100.00
2022-10-18T04:09:06.527Z,100.00
2022-10-18T04:11:39.700Z,100.00
2022-10-18T04:14:10.033Z,100.00
2022-10-18T04:16:40.176Z,100.00
2022-10-18T04:19:13.933Z,100.00
2022-10-18T04:21:44.521Z,100.00
2022-10-18T04:24:14.596Z,100.00
2022-10-18T04:26:44.909Z,100.00
2022-10-18T04:29:15.425Z,100.00
2022-10-18T04:31:45.658Z,100.00
2022-10-18T04:34:18.318Z,100.00
2022-10-18T04:36:48.997Z,100.00
2022-10-18T04:39:20.562Z,100.00
2022-10-18T04:41:51.160Z,100.00
2022-10-18T04:44:21.463Z,100.00
2022-10-18T04:46:52.490Z,100.00
2022-10-18T04:49:25.350Z,100.00
2022-10-18T04:51:55.653Z,100.00
2022-10-18T04:54:27.963Z,100.00
2022-10-18T04:56:59.056Z,100.00
2022-10-18T04:59:29.312Z,100.00
2022-10-18T05:01:59.660Z,100.00
2022-10-18T05:04:32.492Z,100.00
2022-10-18T05:07:03.214Z,100.00
2022-10-18T05:09:33.373Z,100.00
2022-10-18T05:12:03.656Z,100.00
2022-10-18T05:14:34.220Z,100.00
2022-10-18T05:17:04.893Z,100.00
2022-10-18T05:19:40.667Z,100.00
2022-10-18T05:22:11.062Z,100.00
2022-10-18T05:24:41.405Z,100.00
2022-10-18T05:27:11.845Z,100.00
2022-10-18T05:29:42.002Z,100.00
2022-10-18T05:32:12.103Z,100.00
2022-10-18T05:34:45.710Z,100.00
2022-10-18T05:37:16.283Z,100.00
2022-10-18T05:39:46.580Z,100.00
2022-10-18T05:42:16.915Z,100.00
2022-10-18T05:44:47.392Z,100.00
2022-10-18T05:47:17.651Z,100.00
2022-10-18T05:49:50.867Z,100.00
2022-10-18T05:52:21.082Z,100.00
2022-10-18T05:54:51.418Z,100.00
2022-10-18T05:57:21.650Z,100.00
2022-10-18T05:59:52.295Z,100.00
2022-10-18T06:02:22.530Z,100.00
2022-10-18T06:04:55.407Z,100.00
2022-10-18T06:07:25.469Z,100.00
2022-10-18T06:09:55.844Z,100.00
2022-10-18T06:12:26.004Z,100.00
2022-10-18T06:14:56.250Z,100.00
2022-10-18T06:17:27.797Z,100.00
2022-10-18T06:20:03.258Z,100.00
2022-10-18T06:22:33.397Z,100.00
2022-10-18T06:25:03.657Z,100.00
2022-10-18T06:27:35.025Z,100.00
2022-10-18T06:30:05.430Z,100.00
2022-10-18T06:32:35.760Z,100.00
2022-10-18T06:35:10.163Z,100.00
2022-10-18T06:37:40.624Z,100.00
2022-10-18T06:40:12.361Z,100.00
2022-10-18T06:42:45.328Z,100.00
2022-10-18T06:45:21.977Z,100.00
2022-10-18T06:47:52.452Z,100.00
2022-10-18T06:50:25.610Z,100.00
2022-10-18T06:52:56.027Z,100.00
2022-10-18T06:55:26.303Z,100.00
2022-10-18T06:57:56.576Z,100.00
2022-10-18T07:00:26.770Z,100.00
2022-10-18T07:02:56.971Z,100.00
2022-10-18T07:05:29.908Z,100.00
2022-10-18T07:08:00.116Z,100.00
2022-10-18T07:10:31.038Z,100.00
2022-10-18T07:13:20.089Z,100.00
2022-10-18T07:15:51.996Z,100.00
2022-10-18T07:18:23.006Z,100.00
2022-10-18T07:20:56.105Z,100.00
2022-10-18T07:23:26.670Z,100.00
2022-10-18T07:25:56.811Z,100.00
2022-10-18T07:28:26.881Z,100.00
2022-10-18T07:31:00.285Z,100.00
2022-10-18T07:33:32.609Z,100.00
2022-10-18T07:36:09.112Z,100.00
2022-10-18T07:38:39.629Z,100.00
2022-10-18T07:41:11.139Z,100.00
2022-10-18T07:43:45.890Z,100.00
2022-10-18T07:46:18.270Z,100.00
2022-10-18T07:48:48.374Z,100.00
2022-10-18T07:51:22.667Z,100.00
2022-10-18T07:53:53.168Z,100.00
2022-10-18T07:56:24.710Z,100.00
2022-10-18T07:58:56.489Z,100.00
2022-10-18T08:01:28.151Z,100.00
2022-10-18T08:04:03.238Z,100.00
2022-10-18T08:06:39.449Z,100.00
2022-10-18T08:09:10.128Z,100.00
2022-10-18T08:11:40.180Z,100.00
2022-10-18T08:14:10.329Z,100.00
2022-10-18T08:16:41.600Z,100.00
2022-10-18T08:19:12.295Z,100.00
2022-10-18T08:21:45.273Z,100.00
2022-10-18T08:24:15.299Z,100.00
2022-10-18T08:26:45.291Z,100.00
2022-10-18T08:29:23.862Z,100.00
2022-10-18T08:31:56.003Z,100.00
2022-10-18T08:34:27.891Z,100.00
2022-10-18T08:37:02.343Z,100.00
2022-10-18T08:39:32.640Z,99.61
2022-10-18T08:42:19.210Z,94.27
2022-10-18T08:44:53.698Z,94.96
2022-10-18T08:47:27.915Z,91.35
2022-10-18T08:50:02.634Z,97.97
2022-10-18T08:52:47.095Z,90.06
2022-10-18T08:55:25.316Z,88.64
2022-10-18T08:57:57.874Z,82.91
2022-10-18T09:00:32.679Z,83.40
2022-10-18T09:03:20.429Z,83.96
2022-10-18T09:05:54.776Z,78.30
2022-10-18T09:09:00.370Z,79.69
2022-10-18T09:11:44.580Z,81.38
2022-10-18T09:14:32.876Z,79.36
2022-10-18T09:17:16.462Z,79.18
2022-10-18T09:20:14.355Z,75.68
2022-10-18T09:22:56.663Z,77.49
2022-10-18T09:25:39.082Z,78.32
2022-10-18T09:28:26.634Z,78.96
2022-10-18T09:31:04.334Z,76.95
2022-10-18T09:33:45.082Z,76.26
2022-10-18T09:36:21.565Z,76.04
2022-10-18T09:38:57.220Z,75.22
2022-10-18T09:41:41.179Z,75.32
2022-10-18T09:44:19.546Z,72.87
2022-10-18T09:46:54.578Z,74.12
2022-10-18T09:49:28.909Z,73.12
2022-10-18T09:52:02.929Z,72.13
2022-10-18T09:54:38.143Z,70.92
2022-10-18T09:57:16.258Z,71.35
2022-10-18T09:59:49.478Z,69.96
2022-10-18T10:02:22.403Z,72.42
2022-10-18T10:04:59.069Z,71.20
2022-10-18T10:07:38.258Z,70.07
2022-10-18T10:10:16.434Z,70.95
2022-10-18T10:12:52.120Z,72.29
2022-10-18T10:15:28.285Z,67.12
2022-10-18T10:18:05.217Z,68.81
2022-10-18T10:20:39.702Z,67.79
2022-10-18T10:23:20.040Z,69.31
2022-10-18T10:25:55.666Z,67.94
2022-10-18T10:28:33.182Z,68.80
2022-10-18T10:31:22.419Z,68.59
2022-10-18T10:34:02.420Z,67.29
2022-10-18T10:36:36.394Z,67.57
2022-10-18T10:39:09.695Z,65.59
2022-10-18T10:41:43.311Z,67.98
2022-10-18T10:44:21.525Z,66.90
2022-10-18T10:46:54.475Z,66.18
2022-10-18T10:49:39.798Z,68.18
2022-10-18T10:52:36.591Z,66.30
2022-10-18T10:55:30.806Z,64.43
2022-10-18T10:57:59.395Z,66.15
2022-10-18T11:00:47.214Z,65.73
2022-10-18T11:03:28.924Z,66.17
2022-10-18T11:06:02.097Z,64.87
2022-10-18T11:08:38.922Z,66.48
2022-10-18T11:11:23.284Z,64.43
2022-10-18T11:14:21.157Z,63.59
2022-10-18T11:17:05.548Z,62.67
2022-10-18T11:19:46.196Z,62.12
2022-10-18T11:22:21.949Z,62.79
2022-10-18T11:24:52.397Z,64.16
2022-10-18T11:27:29.063Z,59.39
2022-10-18T11:30:17.435Z,58.42
2022-10-18T11:32:55.965Z,57.47
2022-10-18T11:35:39.073Z,57.84
2022-10-18T11:38:38.138Z,55.16
2022-10-18T11:41:32.087Z,53.77
2022-10-18T11:44:04.823Z,56.41
2022-10-18T11:46:49.675Z,54.18
2022-10-18T11:49:36.581Z,54.61
2022-10-18T11:52:15.705Z,53.34
2022-10-18T11:55:08.351Z,52.69
2022-10-18T11:57:51.407Z,53.46
2022-10-18T12:00:33.581Z,54.22
2022-10-18T12:03:22.174Z,55.02
2022-10-18T12:05:58.383Z,53.77
2022-10-18T12:08:35.998Z,51.93
2022-10-18T12:11:13.697Z,54.15
2022-10-18T12:13:50.450Z,51.99
2022-10-18T12:16:45.477Z,50.99
2022-10-18T12:19:25.185Z,50.32
2022-10-18T12:22:14.886Z,52.36
2022-10-18T12:24:46.306Z,50.24
2022-10-18T12:27:19.469Z,51.08
2022-10-18T12:29:57.150Z,52.18
2022-10-18T12:32:34.171Z,50.71
2022-10-18T12:35:09.485Z,49.87
2022-10-18T12:38:21.449Z,49.89
2022-10-18T12:40:57.644Z,48.66
2022-10-18T12:43:32.699Z,47.15
2022-10-18T12:46:10.754Z,47.82
2022-10-18T12:48:46.998Z,49.47
2022-10-18T12:51:20.050Z,50.22
2022-10-18T12:54:00.043Z,48.95
2022-10-18T12:56:43.084Z,48.83
2022-10-18T12:59:52.372Z,51.33
2022-10-18T13:02:29.066Z,51.37
2022-10-18T13:05:00.912Z,49.54
2022-10-18T13:07:45.637Z,50.58
2022-10-18T13:10:48.758Z,50.52
2022-10-18T13:13:55.507Z,49.01
2022-10-18T13:16:42.248Z,52.41
2022-10-18T13:19:25.185Z,49.87
2022-10-18T13:22:11.405Z,51.06
2022-10-18T13:24:47.494Z,50.32
2022-10-18T13:27:36.907Z,48.57
2022-10-18T13:30:33.489Z,48.21
2022-10-18T13:33:19.341Z,49.06
2022-10-18T13:35:55.721Z,49.10
2022-10-18T13:38:47.405Z,49.52
2022-10-18T13:41:20.171Z,48.50
2022-10-18T13:44:16.208Z,50.34
2022-10-18T13:47:21.709Z,50.53
2022-10-18T13:50:28.089Z,51.53
2022-10-18T13:53:22.532Z,49.21
2022-10-18T13:56:02.383Z,48.71
2022-10-18T13:58:53.751Z,51.52
2022-10-18T14:01:52.894Z,50.62
2022-10-18T14:05:16.630Z,50.05
2022-10-18T14:07:50.542Z,51.52
2022-10-18T14:10:43.670Z,51.18
2022-10-18T14:13:24.713Z,50.96
2022-10-18T14:15:59.144Z,49.17
2022-10-18T14:18:38.439Z,51.67
2022-10-18T14:21:19.839Z,50.99
2022-10-18T14:23:51.774Z,50.75
2022-10-18T14:26:24.261Z,52.64
2022-10-18T14:29:07.105Z,53.27
2022-10-18T14:31:38.587Z,51.48
2022-10-18T14:34:18.385Z,50.58
2022-10-18T14:36:51.603Z,51.41
2022-10-18T14:39:23.991Z,52.47
2022-10-18T14:41:57.432Z,52.26
2022-10-18T14:44:29.027Z,53.73
2022-10-18T14:47:04.705Z,52.46
2022-10-18T14:49:45.495Z,53.42
2022-10-18T14:52:18.982Z,54.58
2022-10-18T14:54:49.394Z,52.28
2022-10-18T14:57:24.461Z,53.70
2022-10-18T15:00:02.162Z,53.89
2022-10-18T15:02:35.483Z,56.66
2022-10-18T15:05:20.747Z,56.62
2022-10-18T15:07:51.934Z,58.53
2022-10-18T15:10:25.006Z,58.30
2022-10-18T15:13:16.904Z,59.13
2022-10-18T15:15:49.147Z,60.99
2022-10-18T15:18:24.795Z,58.37
2022-10-18T15:21:13.375Z,60.76
2022-10-18T15:23:43.503Z,62.25
2022-10-18T15:26:18.478Z,61.95
2022-10-18T15:28:54.138Z,61.45
2022-10-18T15:31:28.853Z,63.67
2022-10-18T15:34:13.069Z,65.83
2022-10-18T15:36:45.785Z,67.92
2022-10-18T15:39:21.130Z,68.97
2022-10-18T15:41:53.485Z,68.57
2022-10-18T15:44:31.750Z,70.38
2022-10-18T15:47:21.633Z,72.80
2022-10-18T15:49:58.466Z,74.40
2022-10-18T15:52:45.311Z,77.58
2022-10-18T15:55:48.990Z,78.91
2022-10-18T15:58:28.299Z,79.88
2022-10-18T16:01:02.441Z,81.67
2022-10-18T16:03:37.158Z,82.28
2022-10-18T16:06:12.246Z,84.33
2022-10-18T16:08:51.125Z,84.34
2022-10-18T16:11:24.045Z,86.69
2022-10-18T16:13:58.000Z,87.29
2022-10-18T16:16:32.163Z,88.70
2022-10-18T16:19:03.154Z,89.06
2022-10-18T16:21:35.639Z,91.48
2022-10-18T16:24:09.412Z,93.84
2022-10-18T16:26:40.477Z,94.28
2022-10-18T16:29:15.241Z,96.46
2022-10-18T16:31:46.793Z,98.00
2022-10-18T16:34:17.516Z,100.00
2022-10-18T16:36:47.976Z,100.00
2022-10-18T16:39:22.752Z,100.00
2022-10-18T16:41:56.103Z,100.00
2022-10-18T16:44:26.169Z,100.00
2022-10-18T16:46:56.449Z,100.00
2022-10-18T16:49:28.662Z,100.00
2022-10-18T16:51:59.726Z,100.00
2022-10-18T16:54:32.864Z,100.00
2022-10-18T16:57:03.009Z,100.00
2022-10-18T16:59:34.817Z,100.00
2022-10-18T17:02:09.142Z,100.00
2022-10-18T17:04:39.523Z,100.00
2022-10-18T17:07:13.313Z,100.00
2022-10-18T17:09:46.413Z,100.00
2022-10-18T17:12:16.659Z,100.00
2022-10-18T17:14:46.721Z,100.00
2022-10-18T17:17:16.929Z,100.00
2022-10-18T17:19:47.440Z,100.00
2022-10-18T17:22:17.480Z,100.00
2022-10-18T17:24:50.291Z,100.00
2022-10-18T17:27:21.145Z,100.00
2022-10-18T17:29:51.346Z,100.00
2022-10-18T17:32:21.499Z,100.00
2022-10-18T17:34:51.953Z,100.00
2022-10-18T17:37:22.189Z,100.00
2022-10-18T17:39:55.329Z,100.00
2022-10-18T17:42:25.521Z,100.00
2022-10-18T17:44:57.729Z,100.00
2022-10-18T17:47:28.213Z,100.00
2022-10-18T17:49:58.518Z,100.00
2022-10-18T17:52:29.096Z,100.00
2022-10-18T17:55:01.882Z,100.00
2022-10-18T17:57:32.056Z,100.00
2022-10-18T18:00:03.311Z,100.00
2022-10-18T18:02:42.904Z,100.00
2022-10-18T18:05:13.399Z,100.00
2022-10-18T18:07:44.313Z,100.00
2022-10-18T18:10:17.178Z,100.00
2022-10-18T18:12:48.126Z,100.00
2022-10-18T18:15:18.825Z,100.00
2022-10-18T18:18:03.661Z,100.00
2022-10-18T18:20:33.933Z,100.00
2022-10-18T18:23:04.187Z,100.00
2022-10-18T18:25:37.019Z,100.00
2022-10-18T18:28:07.750Z,100.00
2022-10-18T18:30:38.446Z,100.00
2022-10-18T18:33:08.839Z,100.00
2022-10-18T18:35:39.030Z,100.00
2022-10-18T18:38:09.270Z,100.00
2022-10-18T18:40:41.902Z,100.00
2022-10-18T18:43:23.145Z,100.00
2022-10-18T18:45:54.860Z,100.00
2022-10-18T18:48:25.060Z,100.00
2022-10-18T18:50:55.268Z,100.00
2022-10-18T18:53:28.639Z,100.00
2022-10-18T18:56:08.874Z,100.00
2022-10-18T18:58:40.921Z,100.00
2022-10-18T19:01:12.281Z,100.00
2022-10-18T19:03:43.215Z,100.00
2022-10-18T19:06:15.983Z,100.00
2022-10-18T19:08:47.799Z,100.00
2022-10-18T19:11:23.035Z,100.00
2022-10-18T19:13:53.279Z,100.00
2022-10-18T19:16:27.894Z,100.00
2022-10-18T19:19:01.212Z,100.00
2022-10-18T19:21:33.983Z,100.00
2022-10-18T19:24:05.062Z,100.00
2022-10-18T19:26:44.605Z,100.00
2022-10-18T19:29:18.060Z,100.00
2022-10-18T19:31:48.671Z,100.00
2022-10-18T19:34:20.692Z,100.00
2022-10-18T19:36:52.421Z,100.00
2022-10-18T19:39:24.176Z,100.00
2022-10-18T19:42:03.421Z,100.00
2022-10-18T19:44:36.169Z,100.00
2022-10-18T19:47:06.952Z,100.00
2022-10-18T19:49:37.008Z,100.00
2022-10-18T19:52:07.118Z,100.00
2022-10-18T19:54:37.428Z,100.00
2022-10-18T19:57:10.646Z,100.00
2022-10-18T20:02:41.783Z,100.00
2022-10-18T20:05:12.979Z,100.00
2022-10-18T20:07:45.440Z,100.00
2022-10-18T20:10:15.870Z,100.00
2022-10-18T20:12:49.067Z,100.00
2022-10-18T20:15:20.344Z,100.00
2022-10-18T20:17:50.404Z,100.00
2022-10-18T20:20:20.493Z,100.00
2022-10-18T20:22:50.669Z,100.00
2022-10-18T20:25:20.841Z,100.00
2022-10-18T20:27:53.875Z,100.00
2022-10-18T20:30:24.260Z,100.00
2022-10-18T20:32:54.835Z,100.00
2022-10-18T20:35:24.904Z,100.00
2022-10-18T20:37:55.135Z,100.00
2022-10-18T20:40:25.238Z,100.00
2022-10-18T20:43:02.955Z,100.00
2022-10-18T20:45:34.440Z,100.00
2022-10-18T20:48:04.767Z,100.00
2022-10-18T20:50:34.924Z,100.00
2022-10-18T20:53:05.169Z,100.00
2022-10-18T20:55:36.609Z,100.00
2022-10-18T20:58:09.821Z,100.00
2022-10-18T21:00:43.151Z,100.00
2022-10-18T21:03:13.227Z,100.00
2022-10-18T21:05:43.305Z,100.00
2022-10-18T21:08:13.635Z,100.00
2022-10-18T21:10:43.736Z,100.00
2022-10-18T21:13:16.333Z,100.00
2022-10-18T21:15:46.838Z,100.00
2022-10-18T21:18:17.071Z,100.00
2022-10-18T21:20:47.263Z,100.00
2022-10-18T21:23:17.333Z,100.00
2022-10-18T21:25:48.148Z,100.00
2022-10-18T21:28:20.825Z,100.00
2022-10-18T21:30:52.408Z,100.00
2022-10-18T21:33:22.463Z,100.00
2022-10-18T21:35:52.528Z,100.00
2022-10-18T21:38:22.572Z,100.00
2022-10-18T21:40:52.746Z,100.00
2022-10-18T21:43:25.574Z,100.00
2022-10-18T21:46:00.926Z,100.00
2022-10-18T21:48:31.310Z,100.00
2022-10-18T21:51:06.069Z,100.00
2022-10-18T21:53:36.968Z,100.00
2022-10-18T21:56:09.203Z,100.00
2022-10-18T21:58:42.450Z,100.00
2022-10-18T22:01:13.869Z,100.00
2022-10-18T22:03:44.182Z,100.00
2022-10-18T22:06:17.419Z,100.00
2022-10-18T22:08:50.440Z,100.00
2022-10-18T22:11:21.907Z,100.00
2022-10-18T22:13:55.795Z,100.00
2022-10-18T22:16:25.565Z,100.00
2022-10-18T22:18:59.800Z,100.00
2022-10-18T22:21:30.333Z,100.00
2022-10-18T22:24:02.629Z,100.00
2022-10-18T22:26:35.905Z,100.00
2022-10-18T22:29:10.897Z,100.00
2022-10-18T22:31:43.626Z,100.00
2022-10-18T22:34:16.167Z,100.00
2022-10-18T22:36:47.006Z,100.00
2022-10-18T22:39:17.659Z,100.00
2022-10-18T22:41:49.591Z,100.00
2022-10-18T22:44:22.644Z,100.00
2022-10-18T22:46:52.698Z,100.00
2022-10-18T22:49:22.883Z,100.00
2022-10-18T22:51:53.056Z,100.00
2022-10-18T22:54:23.105Z,100.00
2022-10-18T22:56:54.768Z,100.00
2022-10-18T22:59:27.926Z,100.00
2022-10-18T23:01:58.123Z,100.00
2022-10-18T23:04:28.490Z,100.00
2022-10-18T23:06:58.832Z,100.00
2022-10-18T23:09:29.181Z,100.00
2022-10-18T23:11:59.523Z,100.00
2022-10-18T23:14:33.810Z,100.00
2022-10-18T23:17:03.890Z,100.00
2022-10-18T23:19:33.937Z,100.00
2022-10-18T23:22:04.235Z,100.00
2022-10-18T23:24:34.591Z,100.00
2022-10-18T23:27:06.470Z,100.00
2022-10-18T23:29:39.411Z,100.00
2022-10-18T23:32:09.675Z,100.00
2022-10-18T23:34:39.757Z,100.00
2022-10-18T23:37:11.631Z,100.00
2022-10-18T23:39:42.342Z,100.00
2022-10-18T23:42:12.395Z,100.00
2022-10-18T23:44:45.402Z,100.00
2022-10-18T23:47:15.468Z,100.00
2022-10-18T23:49:45.758Z,100.00
2022-10-18T23:52:15.953Z,100.00
2022-10-18T23:54:46.124Z,100.00
2022-10-18T23:57:16.408Z,100.00
2022-10-18T23:59:49.290Z,100.00
